Time;durP1;ratioP1;P1;durP2;ratioP2;P2;SDS_P1;SDS_P2;PMS_P1;PMS_P2;Temp;Humidity;BMP_temperature;BMP_pressure;BME280_temperature;BME280_humidity;BME280_pressure;Samples;Min_cycle;Max_cycle;Signal;HPM_P1;HPM_P2
2022/09/17 00:00:57;;;;;;;1.67;1.58;;;;;;;;;;4919971;29;20066;-68
2022/09/17 00:03:23;;;;;;;1.60;1.50;;;;;;;;;;4919687;29;20042;-66
2022/09/17 00:05:48;;;;;;;3.47;1.63;;;;;;;;;;4919975;29;20040;-65
2022/09/17 00:08:14;;;;;;;1.48;1.38;;;;;;;;;;4919682;29;20024;-66
2022/09/17 00:10:42;;;;;;;2.05;1.40;;;;;;;;;;4919731;29;20480;-65
2022/09/17 00:13:09;;;;;;;2.50;1.60;;;;;;;;;;4919757;29;20115;-66
2022/09/17 00:15:43;;;;;;;1.50;1.40;;;;;;;;;;4919437;29;20032;-63
2022/09/17 00:18:10;;;;;;;2.17;1.60;;;;;;;;;;4919718;29;20028;-66
2022/09/17 00:20:44;;;;;;;1.92;1.40;;;;;;;;;;4919686;29;20107;-67
2022/09/17 00:23:11;;;;;;;1.58;1.48;;;;;;;;;;4919626;29;20106;-67
2022/09/17 00:25:38;;;;;;;1.77;1.42;;;;;;;;;;4919378;29;20028;-66
2022/09/17 00:28:03;;;;;;;2.33;1.50;;;;;;;;;;4919409;29;20095;-65
2022/09/17 00:30:29;;;;;;;1.60;1.50;;;;;;;;;;4919037;29;20024;-66
2022/09/17 00:32:56;;;;;;;1.83;1.60;;;;;;;;;;4919045;29;20055;-65
2022/09/17 00:35:23;;;;;;;1.50;1.40;;;;;;;;;;4922432;29;20038;-66
2022/09/17 00:37:48;;;;;;;2.10;1.33;;;;;;;;;;4937489;29;20424;-66
2022/09/17 00:40:14;;;;;;;1.50;1.40;;;;;;;;;;4937099;29;20064;-67
2022/09/17 00:42:39;;;;;;;1.52;1.42;;;;;;;;;;4937122;29;20392;-67
2022/09/17 00:45:05;;;;;;;2.55;1.50;;;;;;;;;;4936992;29;20036;-67
2022/09/17 00:47:38;;;;;;;1.52;1.30;;;;;;;;;;4936974;29;20384;-66
2022/09/17 00:50:06;;;;;;;1.33;1.23;;;;;;;;;;4937152;29;20399;-66
2022/09/17 00:52:36;;;;;;;1.50;1.40;;;;;;;;;;4936894;29;20071;-65
2022/09/17 00:55:12;;;;;;;1.80;1.70;;;;;;;;;;4936925;29;20024;-65
2022/09/17 00:57:39;;;;;;;2.75;1.33;;;;;;;;;;4936744;29;20042;-67
2022/09/17 01:00:07;;;;;;;1.83;1.60;;;;;;;;;;4936964;29;20038;-68
2022/09/17 01:02:33;;;;;;;1.50;1.40;;;;;;;;;;4937232;29;20115;-65
2022/09/17 01:04:58;;;;;;;1.63;1.52;;;;;;;;;;4935802;29;20031;-66
2022/09/17 01:07:42;;;;;;;1.60;1.50;;;;;;;;;;4918575;29;20036;-68
2022/09/17 01:10:32;;;;;;;3.30;1.65;;;;;;;;;;4918520;29;20510;-67
2022/09/17 01:13:00;;;;;;;;;;;;;;;;;;4919207;29;20036;-61
2022/09/17 01:15:52;;;;;;;1.25;1.20;;;;;;;;;;4918733;29;19921;-68
2022/09/17 01:18:24;;;;;;;1.73;1.63;;;;;;;;;;4896109;29;20383;-66
2022/09/17 01:21:13;;;;;;;1.60;1.50;;;;;;;;;;4918323;29;20028;-66
2022/09/17 01:23:47;;;;;;;1.47;1.37;;;;;;;;;;4918297;29;20575;-66
2022/09/17 01:26:37;;;;;;;1.40;1.30;;;;;;;;;;4918314;29;20024;-67
2022/09/17 01:29:03;;;;;;;;;;;;;;;;;;4918825;29;20068;-66
2022/09/17 01:31:43;;;;;;;1.40;1.30;;;;;;;;;;4917966;29;20347;-67
2022/09/17 01:34:38;;;;;;;1.63;1.52;;;;;;;;;;4918393;29;20626;-67
2022/09/17 01:37:16;;;;;;;1.90;1.42;;;;;;;;;;4918404;29;20028;-65
2022/09/17 01:40:04;;;;;;;1.58;1.48;;;;;;;;;;4918093;29;20086;-67
2022/09/17 01:42:48;;;;;;;1.90;1.60;;;;;;;;;;4918032;29;20035;-67
2022/09/17 01:45:24;;;;;;;1.80;1.40;;;;;;;;;;4917925;29;20036;-66
2022/09/17 01:47:55;;;;;;;2.42;1.52;;;;;;;;;;4918090;29;20099;-68
2022/09/17 01:50:36;;;;;;;1.70;1.60;;;;;;;;;;4918044;29;20032;-60
2022/09/17 01:53:04;;;;;;;1.23;1.20;;;;;;;;;;4917896;29;20043;-60
2022/09/17 01:55:34;;;;;;;3.58;1.75;;;;;;;;;;4917736;29;20028;-61
2022/09/17 01:58:06;;;;;;;1.40;1.30;;;;;;;;;;4917601;29;20039;-61
2022/09/17 02:00:31;;;;;;;1.40;1.30;;;;;;;;;;4917959;29;20042;-61
2022/09/17 02:03:13;;;;;;;4.80;1.48;;;;;;;;;;4917864;29;20388;-61
2022/09/17 02:05:45;;;;;;;1.48;1.38;;;;;;;;;;4929869;29;20391;-67
2022/09/17 02:08:13;;;;;;;1.83;1.50;;;;;;;;;;4935629;29;20114;-68
2022/09/17 02:10:46;;;;;;;1.55;1.45;;;;;;;;;;4935476;29;20520;-67
2022/09/17 02:13:41;;;;;;;1.42;1.33;;;;;;;;;;4935700;29;20102;-67
2022/09/17 02:16:12;;;;;;;1.70;1.60;;;;;;;;;;4934714;29;20510;-67
2022/09/17 02:18:52;;;;;;;2.92;1.40;;;;;;;;;;4935636;29;20027;-67
2022/09/17 02:21:21;;;;;;;1.65;1.55;;;;;;;;;;4935292;29;20074;-60
2022/09/17 02:24:09;;;;;;;1.67;1.50;;;;;;;;;;4935317;29;20388;-65
2022/09/17 02:26:41;;;;;;;1.75;1.50;;;;;;;;;;4935149;29;20439;-67
2022/09/17 02:29:16;;;;;;;3.10;1.58;;;;;;;;;;4934878;29;20464;-65
2022/09/17 02:31:42;;;;;;;4.20;1.40;;;;;;;;;;4935777;29;20194;-63
2022/09/17 02:34:09;;;;;;;2.85;1.83;;;;;;;;;;4933797;29;20495;-67
2022/09/17 02:36:34;;;;;;;1.38;1.13;;;;;;;;;;4916917;29;20056;-67
2022/09/17 02:39:02;;;;;;;1.67;1.42;;;;;;;;;;4916937;29;20064;-67
2022/09/17 02:41:50;;;;;;;1.70;1.60;;;;;;;;;;4917093;29;20028;-66
2022/09/17 02:44:23;;;;;;;1.55;1.45;;;;;;;;;;4917175;29;20088;-68
2022/09/17 02:47:13;;;;;;;2.13;1.70;;;;;;;;;;4917082;29;20082;-68
2022/09/17 02:50:01;;;;;;;1.90;1.50;;;;;;;;;;4916998;29;20177;-63
2022/09/17 02:52:48;;;;;;;2.38;1.50;;;;;;;;;;4917056;29;20094;-62
2022/09/17 02:55:23;;;;;;;2.60;1.60;;;;;;;;;;4916627;29;20051;-64
2022/09/17 02:58:05;;;;;;;1.85;1.65;;;;;;;;;;4916707;29;20075;-61
2022/09/17 03:00:31;;;;;;;1.73;1.63;;;;;;;;;;4915455;29;20036;-60
2022/09/17 03:03:27;;;;;;;1.75;1.50;;;;;;;;;;4916886;29;20075;-60
2022/09/17 03:05:55;;;;;;;1.70;1.58;;;;;;;;;;4916627;29;20116;-63
2022/09/17 03:08:39;;;;;;;1.30;1.20;;;;;;;;;;4916576;29;20040;-68
2022/09/17 03:11:05;;;;;;;1.92;1.65;;;;;;;;;;4916727;29;20036;-64
2022/09/17 03:13:31;;;;;;;1.65;1.55;;;;;;;;;;4916779;29;20059;-67
2022/09/17 03:15:57;;;;;;;1.67;1.58;;;;;;;;;;4916657;29;20476;-65
2022/09/17 03:18:22;;;;;;;2.33;1.60;;;;;;;;;;4916734;29;20379;-65
2022/09/17 03:20:48;;;;;;;1.63;1.45;;;;;;;;;;4916572;29;20115;-67
2022/09/17 03:23:15;;;;;;;2.00;1.63;;;;;;;;;;4916684;29;20035;-67
2022/09/17 03:25:40;;;;;;;1.63;1.50;;;;;;;;;;4916272;29;20028;-67
2022/09/17 03:28:06;;;;;;;2.35;1.70;;;;;;;;;;4916602;29;20460;-66
2022/09/17 03:30:31;;;;;;;1.63;1.52;;;;;;;;;;4916549;29;20487;-67
2022/09/17 03:32:57;;;;;;;1.70;1.60;;;;;;;;;;4916163;29;20087;-66
2022/09/17 03:35:22;;;;;;;2.20;1.40;;;;;;;;;;4933886;29;20114;-67
2022/09/17 03:37:48;;;;;;;1.80;1.70;;;;;;;;;;4934669;29;20078;-68
2022/09/17 03:40:13;;;;;;;2.10;1.70;;;;;;;;;;4934256;29;20107;-66
2022/09/17 03:42:39;;;;;;;1.63;1.48;;;;;;;;;;4934250;29;20028;-67
2022/09/17 03:45:05;;;;;;;2.88;1.48;;;;;;;;;;4934388;29;20460;-66
2022/09/17 03:47:30;;;;;;;1.67;1.58;;;;;;;;;;4934192;29;20383;-67
2022/09/17 03:49:56;;;;;;;1.63;1.52;;;;;;;;;;4934037;29;20035;-67
2022/09/17 03:52:22;;;;;;;1.85;1.70;;;;;;;;;;4934553;29;20055;-67
2022/09/17 03:54:48;;;;;;;1.70;1.60;;;;;;;;;;4935320;29;20028;-67
2022/09/17 03:57:13;;;;;;;1.70;1.60;;;;;;;;;;4935091;29;20546;-67
2022/09/17 03:59:39;;;;;;;1.70;1.60;;;;;;;;;;4935246;29;20115;-68
2022/09/17 04:02:04;;;;;;;1.58;1.48;;;;;;;;;;4935185;29;20037;-66
2022/09/17 04:04:30;;;;;;;1.90;1.60;;;;;;;;;;4921759;29;20029;-67
2022/09/17 04:06:55;;;;;;;1.55;1.40;;;;;;;;;;4915946;29;20080;-67
2022/09/17 04:09:21;;;;;;;1.42;1.30;;;;;;;;;;4916185;29;20048;-67
2022/09/17 04:11:46;;;;;;;1.67;1.58;;;;;;;;;;4915783;29;20437;-66
2022/09/17 04:14:12;;;;;;;1.75;1.60;;;;;;;;;;4915869;29;20036;-59
2022/09/17 04:16:37;;;;;;;2.45;1.83;;;;;;;;;;4915853;29;20056;-67
2022/09/17 04:19:03;;;;;;;1.88;1.48;;;;;;;;;;4915758;29;20028;-67
2022/09/17 04:21:28;;;;;;;2.28;1.85;;;;;;;;;;4916045;29;20033;-67
2022/09/17 04:23:54;;;;;;;1.58;1.48;;;;;;;;;;4916276;29;20032;-67
2022/09/17 04:26:19;;;;;;;2.03;1.70;;;;;;;;;;4915964;29;20032;-64
2022/09/17 04:28:45;;;;;;;1.65;1.55;;;;;;;;;;4915742;29;20032;-66
2022/09/17 04:31:10;;;;;;;1.65;1.45;;;;;;;;;;4915873;29;20036;-67
2022/09/17 04:33:36;;;;;;;1.77;1.67;;;;;;;;;;4915463;29;20040;-66
2022/09/17 04:36:02;;;;;;;1.73;1.55;;;;;;;;;;4915664;29;20229;-67
2022/09/17 04:38:28;;;;;;;2.60;2.10;;;;;;;;;;4917087;29;20084;-66
2022/09/17 04:40:56;;;;;;;4.03;1.70;;;;;;;;;;4919067;29;20032;-66
2022/09/17 04:43:21;;;;;;;1.70;1.38;;;;;;;;;;4919187;29;20477;-65
2022/09/17 04:45:48;;;;;;;1.70;1.60;;;;;;;;;;4918900;29;20103;-66
2022/09/17 04:48:13;;;;;;;1.52;1.40;;;;;;;;;;4919200;29;20431;-67
2022/09/17 04:50:39;;;;;;;1.88;1.30;;;;;;;;;;4918914;29;20120;-65
2022/09/17 04:53:04;;;;;;;2.72;1.50;;;;;;;;;;4919068;29;20464;-67
2022/09/17 04:55:30;;;;;;;2.10;1.90;;;;;;;;;;4918732;29;20468;-66
2022/09/17 04:57:56;;;;;;;1.50;1.40;;;;;;;;;;4917903;29;20036;-62
2022/09/17 05:00:22;;;;;;;2.65;1.65;;;;;;;;;;4918698;29;20490;-65
2022/09/17 05:02:49;;;;;;;1.77;1.60;;;;;;;;;;4924406;29;20028;-64
2022/09/17 05:05:16;;;;;;;1.83;1.52;;;;;;;;;;4936590;29;20546;-59
2022/09/17 05:07:42;;;;;;;1.92;1.50;;;;;;;;;;4936998;29;20095;-61
2022/09/17 05:10:09;;;;;;;1.77;1.67;;;;;;;;;;4936927;29;20039;-63
2022/09/17 05:12:36;;;;;;;2.20;1.50;;;;;;;;;;4936554;29;20055;-61
2022/09/17 05:15:02;;;;;;;1.40;1.30;;;;;;;;;;4936493;29;20119;-59
2022/09/17 05:17:27;;;;;;;1.75;1.60;;;;;;;;;;4936563;29;20035;-59
2022/09/17 05:19:53;;;;;;;1.73;1.40;;;;;;;;;;4937330;29;20039;-59
2022/09/17 05:22:19;;;;;;;1.95;1.60;;;;;;;;;;4936327;29;20030;-59
2022/09/17 05:24:45;;;;;;;1.65;1.55;;;;;;;;;;4937571;29;20026;-60
2022/09/17 05:27:11;;;;;;;1.73;1.50;;;;;;;;;;4937284;29;20110;-66
2022/09/17 05:29:36;;;;;;;3.35;1.55;;;;;;;;;;4937195;29;20438;-62
2022/09/17 05:32:03;;;;;;;1.50;1.40;;;;;;;;;;4935438;29;20143;-60
2022/09/17 05:34:29;;;;;;;2.22;1.65;;;;;;;;;;4918450;29;20037;-59
2022/09/17 05:36:54;;;;;;;2.22;1.40;;;;;;;;;;4918405;29;20491;-60
2022/09/17 05:39:24;;;;;;;1.70;1.50;;;;;;;;;;4918293;29;20087;-61
2022/09/17 05:41:51;;;;;;;1.70;1.60;;;;;;;;;;4918010;29;20028;-60
2022/09/17 05:44:17;;;;;;;1.95;1.58;;;;;;;;;;4917773;29;20033;-66
2022/09/17 05:46:42;;;;;;;2.35;1.40;;;;;;;;;;4917829;29;20036;-60
2022/09/17 05:49:08;;;;;;;1.60;1.50;;;;;;;;;;4917180;29;20024;-60
2022/09/17 05:51:33;;;;;;;1.67;1.42;;;;;;;;;;4917443;29;20369;-60
2022/09/17 05:53:58;;;;;;;1.50;1.40;;;;;;;;;;4917643;29;20123;-60
2022/09/17 05:56:24;;;;;;;1.50;1.40;;;;;;;;;;4916385;29;20149;-60
2022/09/17 05:58:55;;;;;;;1.40;1.30;;;;;;;;;;4917618;29;20039;-63
2022/09/17 06:01:22;;;;;;;4.10;1.52;;;;;;;;;;4917635;29;20039;-62
2022/09/17 06:03:47;;;;;;;1.70;1.60;;;;;;;;;;4917721;29;20481;-59
2022/09/17 06:06:13;;;;;;;1.67;1.50;;;;;;;;;;4917870;29;20036;-61
2022/09/17 06:08:38;;;;;;;1.70;1.60;;;;;;;;;;4917532;29;20054;-59
2022/09/17 06:11:08;;;;;;;1.70;1.40;;;;;;;;;;4917322;29;20454;-61
2022/09/17 06:13:34;;;;;;;1.50;1.40;;;;;;;;;;4917376;29;20028;-64
2022/09/17 06:16:00;;;;;;;1.63;1.50;;;;;;;;;;4917627;29;20044;-60
2022/09/17 06:18:27;;;;;;;1.50;1.40;;;;;;;;;;4917341;29;20031;-59
2022/09/17 06:20:58;;;;;;;1.27;1.27;;;;;;;;;;4917519;29;20032;-60
2022/09/17 06:23:24;;;;;;;1.60;1.50;;;;;;;;;;4917165;29;20028;-64
2022/09/17 06:25:54;;;;;;;1.50;1.40;;;;;;;;;;4919681;29;20083;-59
2022/09/17 06:28:20;;;;;;;1.77;1.40;;;;;;;;;;4921183;29;20036;-61
2022/09/17 06:30:45;;;;;;;1.63;1.40;;;;;;;;;;4916924;29;20107;-60
2022/09/17 06:33:11;;;;;;;1.50;1.40;;;;;;;;;;4916008;29;20051;-61
2022/09/17 06:35:36;;;;;;;1.65;1.50;;;;;;;;;;4915886;29;20040;-62
2022/09/17 06:38:05;;;;;;;1.50;1.40;;;;;;;;;;4917290;29;20080;-60
2022/09/17 06:40:31;;;;;;;2.67;1.77;;;;;;;;;;4916332;29;20039;-59
2022/09/17 06:42:58;;;;;;;5.85;3.10;;;;;;;;;;4926906;29;20452;-60
2022/09/17 06:45:27;;;;;;;4.20;3.53;;;;;;;;;;4924821;29;20024;-59
2022/09/17 06:47:52;;;;;;;8.60;3.22;;;;;;;;;;4925922;29;20032;-63
2022/09/17 06:50:18;;;;;;;5.38;3.60;;;;;;;;;;4917028;29;20472;-61
2022/09/17 06:52:50;;;;;;;5.53;3.33;;;;;;;;;;4922576;29;20039;-63
2022/09/17 06:55:16;;;;;;;7.38;3.47;;;;;;;;;;4916868;29;20404;-62
2022/09/17 06:57:41;;;;;;;6.15;3.80;;;;;;;;;;4916602;29;20357;-62
2022/09/17 07:00:08;;;;;;;4.95;4.10;;;;;;;;;;4916800;29;20043;-63
2022/09/17 07:02:34;;;;;;;5.40;3.40;;;;;;;;;;4916289;29;20034;-60
2022/09/17 07:05:00;;;;;;;4.68;3.47;;;;;;;;;;4916486;29;20028;-65
2022/09/17 07:07:26;;;;;;;4.20;3.10;;;;;;;;;;4916392;29;20032;-60
2022/09/17 07:09:54;;;;;;;3.88;2.97;;;;;;;;;;4915998;29;20032;-60
2022/09/17 07:12:20;;;;;;;5.63;2.80;;;;;;;;;;4916103;29;20024;-60
2022/09/17 07:14:49;;;;;;;4.10;2.97;;;;;;;;;;4915533;29;20032;-60
2022/09/17 07:17:14;;;;;;;3.50;2.78;;;;;;;;;;4916128;29;20146;-60
2022/09/17 07:19:40;;;;;;;4.82;3.03;;;;;;;;;;4916604;29;20067;-60
2022/09/17 07:22:06;;;;;;;4.85;2.83;;;;;;;;;;4916310;29;20421;-60
2022/09/17 07:24:32;;;;;;;2.72;2.53;;;;;;;;;;4915558;29;20028;-60
2022/09/17 07:26:58;;;;;;;4.47;2.80;;;;;;;;;;4916240;29;20033;-60
2022/09/17 07:29:25;;;;;;;3.35;2.58;;;;;;;;;;4916270;29;20047;-62
2022/09/17 07:31:54;;;;;;;2.92;2.40;;;;;;;;;;4915872;29;20455;-61
2022/09/17 07:34:20;;;;;;;5.45;2.72;;;;;;;;;;4916185;29;20481;-65
2022/09/17 07:36:50;;;;;;;2.90;2.53;;;;;;;;;;4916224;29;20083;-61
2022/09/17 07:39:15;;;;;;;4.45;2.90;;;;;;;;;;4916007;29;20047;-62
2022/09/17 07:41:41;;;;;;;3.15;2.55;;;;;;;;;;4916044;29;20064;-60
2022/09/17 07:44:06;;;;;;;3.38;2.50;;;;;;;;;;4916376;29;20024;-61
2022/09/17 07:46:32;;;;;;;2.72;2.53;;;;;;;;;;4916007;29;20440;-62
2022/09/17 07:48:58;;;;;;;3.60;2.45;;;;;;;;;;4916294;29;20035;-65
2022/09/17 07:51:27;;;;;;;4.75;2.78;;;;;;;;;;4916228;29;20032;-62
2022/09/17 07:53:54;;;;;;;3.58;2.65;;;;;;;;;;4916054;29;20032;-65
2022/09/17 07:56:22;;;;;;;6.25;3.00;;;;;;;;;;4916251;29;20032;-65
2022/09/17 07:58:48;;;;;;;3.35;2.58;;;;;;;;;;4916013;29;20036;-66
2022/09/17 08:01:15;;;;;;;2.70;2.50;;;;;;;;;;4916029;29;20036;-63
2022/09/17 08:03:42;;;;;;;2.45;2.25;;;;;;;;;;4916232;29;20036;-62
2022/09/17 08:06:13;;;;;;;2.78;2.33;;;;;;;;;;4916153;29;20031;-60
2022/09/17 08:08:39;;;;;;;3.22;2.28;;;;;;;;;;4916269;29;20392;-64
2022/09/17 08:11:05;;;;;;;5.35;2.78;;;;;;;;;;4915739;29;20036;-66
2022/09/17 08:13:32;;;;;;;4.07;2.65;;;;;;;;;;4917569;29;20084;-65
2022/09/17 08:16:03;;;;;;;4.25;2.70;;;;;;;;;;4919467;29;20287;-60
2022/09/17 08:18:29;;;;;;;2.75;2.35;;;;;;;;;;4919733;29;20121;-65
2022/09/17 08:21:02;;;;;;;3.33;2.63;;;;;;;;;;4919435;29;20478;-62
2022/09/17 08:23:29;;;;;;;2.60;2.40;;;;;;;;;;4919325;29;20050;-63
2022/09/17 08:25:57;;;;;;;2.75;2.30;;;;;;;;;;4919277;29;20032;-64
2022/09/17 08:28:24;;;;;;;3.42;2.60;;;;;;;;;;4919189;29;20036;-62
2022/09/17 08:30:53;;;;;;;3.15;2.70;;;;;;;;;;4919418;29;20028;-60
2022/09/17 08:33:19;;;;;;;3.17;2.70;;;;;;;;;;4919060;29;20051;-64
2022/09/17 08:35:52;;;;;;;3.28;2.50;;;;;;;;;;4919148;29;20024;-61
2022/09/17 08:38:18;;;;;;;4.60;2.72;;;;;;;;;;4919377;29;20040;-66
2022/09/17 08:41:13;;;;;;;2.80;2.50;;;;;;;;;;4919356;29;20040;-65
2022/09/17 08:43:53;;;;;;;3.40;2.70;;;;;;;;;;4919061;29;20429;-61
2022/09/17 08:46:19;;;;;;;;;;;;;;;;;;4919482;29;20032;-62
2022/09/17 08:48:53;;;;;;;2.45;2.10;;;;;;;;;;4918873;29;19918;-62
2022/09/17 08:51:41;;;;;;;2.78;2.50;;;;;;;;;;4919146;29;20039;-62
2022/09/17 08:54:44;;;;;;;2.80;2.60;;;;;;;;;;4918792;29;20067;-60
2022/09/17 08:57:46;;;;;;;2.65;2.45;;;;;;;;;;4889216;29;20099;-61
2022/09/17 09:00:15;;;;;;;4.10;2.60;;;;;;;;;;4918794;29;20031;-60
2022/09/17 09:02:44;;;;;;;5.07;2.80;;;;;;;;;;4918725;29;20039;-61
2022/09/17 09:05:21;;;;;;;2.75;2.55;;;;;;;;;;4918671;29;20044;-63
2022/09/17 09:07:52;;;;;;;3.53;2.70;;;;;;;;;;4918582;29;20112;-60
2022/09/17 09:10:33;;;;;;;2.92;2.42;;;;;;;;;;4918574;29;20028;-59
2022/09/17 09:13:00;;;;;;;2.95;2.63;;;;;;;;;;4918816;29;20038;-62
2022/09/17 09:15:58;;;;;;;3.90;2.70;;;;;;;;;;4918782;29;20036;-60
2022/09/17 09:18:30;;;;;;;3.00;2.70;;;;;;;;;;4918134;29;20107;-60
2022/09/17 09:21:19;;;;;;;3.40;2.60;;;;;;;;;;4918605;29;20024;-60
2022/09/17 09:23:57;;;;;;;2.78;2.50;;;;;;;;;;4918255;29;20384;-59
2022/09/17 09:26:38;;;;;;;2.92;2.30;;;;;;;;;;4918324;29;20130;-60
2022/09/17 09:29:33;;;;;;;3.70;2.90;;;;;;;;;;4918305;29;20055;-60
2022/09/17 09:32:24;;;;;;;2.60;2.40;;;;;;;;;;4905067;29;20579;-60
2022/09/17 09:34:50;;;;;;;3.22;2.60;;;;;;;;;;4918472;29;20036;-60
2022/09/17 09:37:30;;;;;;;2.75;2.38;;;;;;;;;;4918130;29;20132;-60
2022/09/17 09:40:25;;;;;;;3.10;2.47;;;;;;;;;;4918046;29;20025;-62
2022/09/17 09:42:53;;;;;;;2.95;2.50;;;;;;;;;;4916002;29;20400;-60
2022/09/17 09:45:53;;;;;;;2.92;2.67;;;;;;;;;;4918205;29;20341;-61
2022/09/17 09:48:47;;;;;;;2.85;2.50;;;;;;;;;;4914469;29;20095;-60
2022/09/17 09:51:34;;;;;;;3.10;2.55;;;;;;;;;;4917757;29;20511;-60
2022/09/17 09:54:11;;;;;;;3.30;2.80;;;;;;;;;;4917824;29;20400;-67
2022/09/17 09:56:54;;;;;;;2.85;2.65;;;;;;;;;;4917751;29;20039;-66
2022/09/17 09:59:20;;;;;;;3.47;2.78;;;;;;;;;;4917975;29;20384;-65
2022/09/17 10:01:46;;;;;;;3.53;2.72;;;;;;;;;;4917974;29;20052;-65
2022/09/17 10:04:18;;;;;;;3.38;2.85;;;;;;;;;;4917633;29;20028;-67
2022/09/17 10:06:45;;;;;;;3.20;2.90;;;;;;;;;;4917783;29;20146;-61
2022/09/17 10:09:13;;;;;;;3.20;2.90;;;;;;;;;;4917801;29;20102;-65
2022/09/17 10:11:38;;;;;;;3.30;3.00;;;;;;;;;;4917684;29;20039;-61
2022/09/17 10:14:25;;;;;;;3.85;2.78;;;;;;;;;;4917666;29;20032;-66
2022/09/17 10:17:10;;;;;;;3.20;2.80;;;;;;;;;;4917384;29;20025;-62
2022/09/17 10:19:36;;;;;;;3.17;2.83;;;;;;;;;;4917663;29;20035;-67
2022/09/17 10:22:29;;;;;;;3.25;2.65;;;;;;;;;;4917346;29;20480;-67
2022/09/17 10:24:56;;;;;;;4.50;3.47;;;;;;;;;;4917251;29;20040;-66
2022/09/17 10:27:23;;;;;;;3.67;2.72;;;;;;;;;;4917168;29;20087;-66
2022/09/17 10:30:16;;;;;;;3.00;2.70;;;;;;;;;;4917392;29;20032;-64
2022/09/17 10:32:42;;;;;;;3.55;2.80;;;;;;;;;;4910720;29;20484;-61
2022/09/17 10:35:13;;;;;;;3.50;3.00;;;;;;;;;;4917129;29;20024;-64
2022/09/17 10:37:47;;;;;;;3.05;2.85;;;;;;;;;;4917228;29;20396;-64
2022/09/17 10:40:19;;;;;;;3.78;2.83;;;;;;;;;;4917048;29;20059;-67
2022/09/17 10:42:45;;;;;;;3.60;3.00;;;;;;;;;;4917297;29;20032;-65
2022/09/17 10:45:29;;;;;;;3.00;2.55;;;;;;;;;;4916935;29;20032;-66
2022/09/17 10:47:56;;;;;;;4.05;2.97;;;;;;;;;;4916830;29;20039;-67
2022/09/17 10:50:28;;;;;;;3.25;2.97;;;;;;;;;;4917016;29;20059;-66
2022/09/17 10:52:56;;;;;;;2.97;2.70;;;;;;;;;;4916766;29;20028;-66
2022/09/17 10:55:36;;;;;;;2.95;2.60;;;;;;;;;;4916943;29;20115;-66
2022/09/17 10:58:07;;;;;;;2.70;2.50;;;;;;;;;;4917054;29;20028;-60
2022/09/17 11:00:46;;;;;;;3.28;2.90;;;;;;;;;;4916613;29;20473;-60
2022/09/17 11:03:17;;;;;;;4.10;3.33;;;;;;;;;;4916604;29;20039;-65
2022/09/17 11:06:02;;;;;;;3.22;2.55;;;;;;;;;;4916871;29;20032;-66
2022/09/17 11:08:48;;;;;;;3.25;2.88;;;;;;;;;;4916486;29;20032;-60
2022/09/17 11:11:40;;;;;;;3.20;2.90;;;;;;;;;;4916669;29;20038;-60
2022/09/17 11:14:24;;;;;;;2.88;2.63;;;;;;;;;;4916507;29;20160;-61
2022/09/17 11:17:19;;;;;;;3.15;2.80;;;;;;;;;;4916768;29;20226;-65
2022/09/17 11:20:03;;;;;;;3.28;2.70;;;;;;;;;;4916728;29;20062;-64
2022/09/17 11:22:50;;;;;;;3.50;2.80;;;;;;;;;;4916401;29;20035;-66
2022/09/17 11:25:40;;;;;;;3.40;3.10;;;;;;;;;;4916306;29;20036;-65
2022/09/17 11:28:09;;;;;;;3.15;2.80;;;;;;;;;;4916275;29;20040;-62
2022/09/17 11:30:52;;;;;;;3.45;2.80;;;;;;;;;;4916201;29;20032;-64
2022/09/17 11:33:40;;;;;;;3.38;2.83;;;;;;;;;;4916124;29;20415;-64
2022/09/17 11:36:17;;;;;;;4.63;2.80;;;;;;;;;;4916472;29;20035;-62
2022/09/17 11:38:50;;;;;;;3.55;2.72;;;;;;;;;;4916517;29;20179;-61
2022/09/17 11:41:21;;;;;;;3.28;2.97;;;;;;;;;;4916162;29;20036;-64
2022/09/17 11:43:57;;;;;;;3.33;2.78;;;;;;;;;;4916108;29;20035;-61
2022/09/17 11:46:43;;;;;;;3.35;2.78;;;;;;;;;;4916405;29;20133;-61
2022/09/17 11:49:23;;;;;;;3.42;2.90;;;;;;;;;;4918977;29;20032;-67
2022/09/17 11:52:07;;;;;;;;;;;;;;;;;;4920625;29;20145;-64
2022/09/17 11:54:48;;;;;;;3.63;2.90;;;;;;;;;;4920017;29;20442;-66
2022/09/17 11:57:19;;;;;;;3.08;2.78;;;;;;;;;;4919970;29;20063;-66
2022/09/17 11:59:48;;;;;;;3.28;2.97;;;;;;;;;;4919868;29;20030;-66
2022/09/17 12:02:22;;;;;;;3.10;2.80;;;;;;;;;;4918603;29;20569;-65
2022/09/17 12:05:43;;;;;;;3.20;2.90;;;;;;;;;;4920120;29;20059;-64
2022/09/17 12:08:15;;;;;;;3.28;2.55;;;;;;;;;;4917631;29;20040;-66
2022/09/17 12:10:56;;;;;;;3.30;3.00;;;;;;;;;;4919624;29;20139;-66
2022/09/17 12:13:21;;;;;;;3.22;2.92;;;;;;;;;;4919597;29;20563;-63
2022/09/17 12:15:56;;;;;;;3.25;2.63;;;;;;;;;;4919611;29;20115;-67
2022/09/17 12:18:49;;;;;;;3.20;2.78;;;;;;;;;;4919710;29;20028;-66
2022/09/17 12:21:20;;;;;;;3.00;2.70;;;;;;;;;;4919822;29;20036;-66
2022/09/17 12:24:12;;;;;;;2.97;2.78;;;;;;;;;;4919459;29;20526;-65
2022/09/17 12:26:37;;;;;;;2.83;2.60;;;;;;;;;;4897170;29;20044;-67
2022/09/17 12:29:31;;;;;;;2.88;2.65;;;;;;;;;;4919325;29;20480;-66
2022/09/17 12:32:42;;;;;;;3.15;2.85;;;;;;;;;;4919039;29;20065;-67
2022/09/17 12:35:41;;;;;;;3.38;2.90;;;;;;;;;;4867952;29;20113;-66
2022/09/17 12:38:40;;;;;;;3.70;2.47;;;;;;;;;;4919437;29;20392;-66
2022/09/17 12:41:17;;;;;;;3.30;2.80;;;;;;;;;;4919085;29;20451;-65
2022/09/17 12:44:23;;;;;;;2.83;2.60;;;;;;;;;;4919136;29;20396;-66
2022/09/17 12:47:06;;;;;;;3.30;3.00;;;;;;;;;;4919390;29;20464;-66
2022/09/17 12:50:09;;;;;;;3.05;2.75;;;;;;;;;;4918994;29;20493;-62
2022/09/17 12:52:53;;;;;;;3.17;2.90;;;;;;;;;;4918892;29;20035;-66
2022/09/17 12:55:47;;;;;;;3.08;2.85;;;;;;;;;;4918915;29;20039;-67
2022/09/17 12:58:31;;;;;;;3.13;2.85;;;;;;;;;;4918160;29;20040;-67
2022/09/17 13:01:15;;;;;;;4.47;2.80;;;;;;;;;;4918760;29;20039;-67
2022/09/17 13:04:04;;;;;;;3.05;2.70;;;;;;;;;;4919012;29;20032;-66
2022/09/17 13:07:04;;;;;;;3.10;2.80;;;;;;;;;;4898305;29;20099;-66
2022/09/17 13:09:57;;;;;;;2.97;2.75;;;;;;;;;;4918920;29;20047;-67
2022/09/17 13:12:53;;;;;;;3.03;2.80;;;;;;;;;;4918663;29;20115;-66
2022/09/17 13:15:43;;;;;;;3.10;2.80;;;;;;;;;;4917350;29;20408;-67
2022/09/17 13:18:32;;;;;;;2.88;2.65;;;;;;;;;;4918551;29;20516;-66
2022/09/17 13:21:05;;;;;;;3.40;3.10;;;;;;;;;;4918771;29;20499;-67
2022/09/17 13:23:43;;;;;;;3.38;3.08;;;;;;;;;;4918715;29;20028;-67
2022/09/17 13:26:12;;;;;;;2.90;2.60;;;;;;;;;;4918660;29;20028;-64
2022/09/17 13:28:49;;;;;;;3.22;2.92;;;;;;;;;;4918255;29;20030;-67
2022/09/17 13:31:37;;;;;;;3.35;2.80;;;;;;;;;;4918229;29;20036;-66
2022/09/17 13:34:03;;;;;;;3.63;2.80;;;;;;;;;;4917962;29;20051;-67
2022/09/17 13:36:32;;;;;;;4.55;2.97;;;;;;;;;;4918063;29;20079;-67
2022/09/17 13:38:58;;;;;;;3.38;2.90;;;;;;;;;;4918079;29;20499;-67
2022/09/17 13:41:25;;;;;;;3.17;2.88;;;;;;;;;;4918058;29;20032;-67
2022/09/17 13:43:53;;;;;;;3.78;2.88;;;;;;;;;;4918018;29;20537;-66
2022/09/17 13:46:24;;;;;;;3.63;3.25;;;;;;;;;;4918251;29;20111;-66
2022/09/17 13:48:58;;;;;;;2.95;2.65;;;;;;;;;;4917878;29;20084;-66
2022/09/17 13:51:29;;;;;;;3.05;2.67;;;;;;;;;;4917846;29;20043;-67
2022/09/17 13:53:56;;;;;;;3.20;2.90;;;;;;;;;;4917783;29;20123;-67
2022/09/17 13:56:47;;;;;;;4.15;2.78;;;;;;;;;;4918062;29;20033;-67
2022/09/17 13:59:17;;;;;;;2.92;2.70;;;;;;;;;;4916561;29;20032;-66
2022/09/17 14:02:01;;;;;;;3.47;2.78;;;;;;;;;;4918003;29;20036;-65
2022/09/17 14:04:39;;;;;;;3.15;2.88;;;;;;;;;;4917684;29;20025;-66
2022/09/17 14:07:22;;;;;;;3.40;2.80;;;;;;;;;;4917609;29;20024;-66
2022/09/17 14:09:55;;;;;;;3.50;3.15;;;;;;;;;;4917604;29;20031;-66
2022/09/17 14:12:54;;;;;;;3.28;2.75;;;;;;;;;;4916934;29;20447;-66
2022/09/17 14:15:32;;;;;;;2.75;2.55;;;;;;;;;;4917441;29;20066;-66
2022/09/17 14:17:58;;;;;;;2.92;2.70;;;;;;;;;;4917441;29;20024;-65
2022/09/17 14:20:25;;;;;;;3.28;2.80;;;;;;;;;;4917419;29;20032;-67
2022/09/17 14:22:59;;;;;;;2.58;2.38;;;;;;;;;;4917269;29;20031;-66
2022/09/17 14:25:41;;;;;;;3.95;2.72;;;;;;;;;;4917583;29;20031;-67
2022/09/17 14:28:38;;;;;;;3.17;2.85;;;;;;;;;;4917221;29;20031;-66
2022/09/17 14:31:16;;;;;;;3.38;3.00;;;;;;;;;;4911535;29;20138;-66
2022/09/17 14:33:43;;;;;;;3.35;2.80;;;;;;;;;;4915906;29;20103;-67
2022/09/17 14:36:18;;;;;;;3.80;2.83;;;;;;;;;;4917053;29;20028;-66
2022/09/17 14:38:48;;;;;;;3.28;2.88;;;;;;;;;;4916935;29;20539;-66
2022/09/17 14:41:13;;;;;;;3.10;2.80;;;;;;;;;;4917235;29;20063;-67
2022/09/17 14:43:53;;;;;;;3.85;3.10;;;;;;;;;;4916993;29;20500;-66
2022/09/17 14:46:24;;;;;;;2.75;2.55;;;;;;;;;;4916925;29;20043;-66
2022/09/17 14:48:55;;;;;;;2.80;2.60;;;;;;;;;;4915495;29;20115;-65
2022/09/17 14:51:24;;;;;;;2.80;2.42;;;;;;;;;;4917046;29;20170;-66
2022/09/17 14:54:05;;;;;;;3.00;2.70;;;;;;;;;;4915548;29;20036;-66
2022/09/17 14:56:33;;;;;;;3.13;2.83;;;;;;;;;;4917020;29;20032;-66
2022/09/17 14:59:01;;;;;;;3.10;2.75;;;;;;;;;;4917005;29;20354;-66
2022/09/17 15:01:30;;;;;;;4.32;3.28;;;;;;;;;;4916653;29;20024;-66
2022/09/17 15:04:13;;;;;;;3.22;2.72;;;;;;;;;;4916568;29;20074;-66
2022/09/17 15:06:43;;;;;;;3.20;2.90;;;;;;;;;;4916817;29;20028;-66
2022/09/17 15:09:15;;;;;;;3.33;3.00;;;;;;;;;;4916626;29;20063;-64
2022/09/17 15:11:43;;;;;;;3.60;2.83;;;;;;;;;;4916722;29;20043;-63
2022/09/17 15:14:20;;;;;;;3.17;2.67;;;;;;;;;;4916470;29;20544;-64
2022/09/17 15:17:04;;;;;;;3.80;3.03;;;;;;;;;;4916793;29;20060;-67
2022/09/17 15:19:53;;;;;;;2.90;2.60;;;;;;;;;;4916682;29;20083;-67